Time;durP1;ratioP1;P1;durP2;ratioP2;P2;SDS_P1;SDS_P2;PMS_P1;PMS_P2;Temp;Humidity;BMP_temperature;BMP_pressure;BME280_temperature;BME280_humidity;BME280_pressure;Samples;Min_cycle;Max_cycle;Signal;HPM_P1;HPM_P2
2024/01/10 00:01:26;;;;;;;2.90;2.20;;;;;;;-7.85;92.29;102959.41;4880305;29;20269;-65
2024/01/10 00:03:55;;;;;;;5.00;4.60;;;;;;;-7.79;91.72;102949.59;4879651;29;20213;-63
2024/01/10 00:06:25;;;;;;;14.27;5.18;;;;;;;-7.83;91.81;102947.94;4871731;29;20220;-64
2024/01/10 00:08:56;;;;;;;4.22;3.85;;;;;;;-7.91;92.07;102944.63;4878790;29;20213;-63
2024/01/10 00:11:25;;;;;;;3.72;3.42;;;;;;;-7.91;92.64;102956.00;4880395;29;20207;-64
2024/01/10 00:13:59;;;;;;;10.23;5.25;;;;;;;-7.89;92.09;102952.47;4880151;29;20202;-64
2024/01/10 00:16:28;;;;;;;3.85;2.00;;;;;;;-8.02;92.03;102946.63;4877575;29;20597;-64
2024/01/10 00:18:58;;;;;;;4.97;4.50;;;;;;;-8.06;92.21;102944.97;4880159;29;20202;-64
2024/01/10 00:21:27;;;;;;;7.07;4.15;;;;;;;-8.08;92.60;102941.50;4874568;29;20730;-63
2024/01/10 00:23:58;;;;;;;4.75;4.32;;;;;;;-8.11;93.39;102937.19;4879098;29;20186;-64
2024/01/10 00:26:27;;;;;;;1.88;1.77;;;;;;;-8.14;93.62;102941.66;4884739;29;20278;-64
2024/01/10 00:28:56;;;;;;;12.40;7.43;;;;;;;-8.12;93.36;102937.19;4875809;29;20282;-63
2024/01/10 00:31:32;;;;;;;8.95;3.75;;;;;;;-8.08;93.86;102938.84;4883311;29;20250;-65
2024/01/10 00:34:01;;;;;;;5.05;3.00;;;;;;;-7.96;93.70;102928.09;4860998;29;20195;-64
2024/01/10 00:36:30;;;;;;;9.32;8.27;;;;;;;-7.87;93.15;102932.28;4885073;29;20216;-64
2024/01/10 00:39:01;;;;;;;5.50;5.25;;;;;;;-7.94;93.04;102935.03;4874846;29;20222;-64
2024/01/10 00:41:30;;;;;;;21.02;5.97;;;;;;;-7.96;93.39;102930.72;4879264;29;20222;-64
2024/01/10 00:43:59;;;;;;;7.43;6.72;;;;;;;-7.93;93.66;102938.53;4875870;29;20202;-64
2024/01/10 00:46:28;;;;;;;5.07;4.88;;;;;;;-7.71;93.34;102929.25;4879702;29;20215;-64
2024/01/10 00:48:57;;;;;;;2.92;2.72;;;;;;;-7.79;92.34;102923.31;4880618;29;20206;-63
2024/01/10 00:51:26;;;;;;;7.25;6.72;;;;;;;-7.86;92.76;102921.72;4878843;29;20222;-64
2024/01/10 00:53:55;;;;;;;10.27;4.00;;;;;;;-7.95;93.24;102921.94;4879646;29;20197;-64
2024/01/10 00:56:25;;;;;;;3.35;3.15;;;;;;;-7.98;93.87;102914.09;4875066;29;20269;-65
2024/01/10 00:58:57;;;;;;;6.90;5.97;;;;;;;-8.03;94.29;102908.09;4875856;29;20214;-64
2024/01/10 01:01:27;;;;;;;3.35;3.10;;;;;;;-7.93;94.81;102907.00;4876480;29;20211;-65
2024/01/10 01:03:57;;;;;;;4.60;3.40;;;;;;;-7.84;94.83;102909.41;4873512;29;20289;-64
2024/01/10 01:06:26;;;;;;;5.38;4.32;;;;;;;-7.84;95.05;102908.56;4880935;29;20238;-65
2024/01/10 01:08:55;;;;;;;5.50;5.20;;;;;;;-7.71;94.59;102904.75;4861901;29;20255;-67
2024/01/10 01:11:26;;;;;;;6.95;4.18;;;;;;;-7.75;93.07;102913.59;4873347;29;20600;-63
2024/01/10 01:13:57;;;;;;;14.20;9.32;;;;;;;-7.70;93.29;102915.22;4879867;29;20283;-64
2024/01/10 01:16:26;;;;;;;2.03;1.92;;;;;;;-7.49;92.13;102909.44;4874090;29;20229;-64
2024/01/10 01:18:55;;;;;;;18.65;9.57;;;;;;;-7.52;91.16;102912.16;4878664;29;20205;-64
2024/01/10 01:21:27;;;;;;;7.78;5.20;;;;;;;-7.68;91.58;102916.03;4877676;29;20238;-64
2024/01/10 01:23:57;;;;;;;13.27;5.82;;;;;;;-7.65;91.52;102913.31;4873483;29;20283;-64
2024/01/10 01:26:27;;;;;;;4.60;4.20;;;;;;;-7.68;91.78;102917.78;4876214;29;20214;-64
2024/01/10 01:28:56;;;;;;;3.30;3.10;;;;;;;-7.61;91.83;102916.75;4877538;29;20288;-63
2024/01/10 01:31:28;;;;;;;3.45;3.25;;;;;;;-7.65;91.02;102912.47;4879520;29;20206;-65
2024/01/10 01:33:58;;;;;;;5.72;5.30;;;;;;;-7.69;91.27;102911.66;4881666;29;20618;-65
2024/01/10 01:36:26;;;;;;;4.10;3.85;;;;;;;-7.72;91.05;102916.16;4874944;29;20305;-69
2024/01/10 01:38:55;;;;;;;23.27;5.40;;;;;;;-7.71;91.08;102918.75;4879908;29;20262;-64
2024/01/10 01:41:26;;;;;;;4.55;3.92;;;;;;;-7.69;91.11;102908.19;4872926;29;20203;-65
2024/01/10 01:43:55;;;;;;;17.13;4.88;;;;;;;-7.74;91.00;102908.28;4877265;29;20187;-64
2024/01/10 01:46:28;;;;;;;8.18;7.47;;;;;;;-7.84;91.19;102904.16;4874176;29;20230;-67
2024/01/10 01:48:58;;;;;;;3.83;3.65;;;;;;;-7.80;92.06;102905.81;4871537;29;20200;-64
2024/01/10 01:51:29;;;;;;;13.73;5.22;;;;;;;-7.77;92.49;102905.75;4880217;29;20199;-64
2024/01/10 01:54:00;;;;;;;9.38;7.80;;;;;;;-7.76;92.13;102910.09;4877060;29;20298;-65
2024/01/10 01:56:31;;;;;;;6.75;6.22;;;;;;;-7.70;91.50;102909.09;4870678;29;20348;-65
2024/01/10 01:59:01;;;;;;;1.58;1.48;;;;;;;-7.57;90.63;102892.13;4877025;29;20252;-65
2024/01/10 02:01:30;;;;;;;11.90;5.70;;;;;;;-7.62;90.24;102894.84;4876521;29;20206;-65
2024/01/10 02:04:02;;;;;;;10.98;4.03;;;;;;;-7.59;89.19;102900.03;4879148;29;20205;-63
2024/01/10 02:06:32;;;;;;;7.97;3.50;;;;;;;-7.74;89.45;102897.78;4877998;29;20220;-63
2024/01/10 02:09:03;;;;;;;6.82;6.43;;;;;;;-7.88;90.42;102891.09;4873471;29;20195;-65
2024/01/10 02:11:40;;;;;;;2.78;2.58;;;;;;;-7.93;91.35;102893.84;4857571;29;20270;-65
2024/01/10 02:14:12;;;;;;;11.45;7.97;;;;;;;-7.95;91.43;102903.56;4861815;29;20231;-64
2024/01/10 02:16:46;;;;;;;6.35;5.80;;;;;;;-7.74;91.75;102899.53;4858508;29;20227;-64
2024/01/10 02:19:29;;;;;;;4.47;3.55;;;;;;;-7.93;91.92;102904.38;4849970;29;20209;-65
2024/01/10 02:22:02;;;;;;;4.13;3.83;;;;;;;-8.10;92.42;102903.91;4871261;29;20195;-64
2024/01/10 02:24:34;;;;;;;5.43;4.85;;;;;;;-8.04;92.31;102907.25;4855750;29;20195;-64
2024/01/10 02:27:19;;;;;;;10.45;5.85;;;;;;;-8.10;92.68;102906.53;4856245;29;20714;-65
2024/01/10 02:29:54;;;;;;;4.13;3.83;;;;;;;-8.19;93.70;102901.47;4854925;29;20260;-65
2024/01/10 02:32:31;;;;;;;2.67;2.47;;;;;;;-7.97;93.16;102907.97;4861418;29;20198;-66
2024/01/10 02:37:59;;;;;;;6.25;5.65;;;;;;;-8.04;91.71;102909.88;4878132;29;20218;-65
2024/01/10 02:40:37;;;;;;;8.27;6.50;;;;;;;-7.97;92.98;102913.22;4862233;29;20198;-65
2024/01/10 02:43:16;;;;;;;1.77;1.67;;;;;;;-8.30;92.81;102908.75;4863236;29;20569;-64
2024/01/10 02:45:54;;;;;;;2.03;1.83;;;;;;;-8.30;94.17;102899.09;4862258;29;20251;-65
2024/01/10 02:48:30;;;;;;;12.23;11.48;;;;;;;-8.39;94.49;102904.56;4865601;29;20206;-65
2024/01/10 02:51:03;;;;;;;5.45;4.90;;;;;;;-8.45;95.11;102900.28;4859442;29;20550;-64
2024/01/10 02:53:37;;;;;;;5.90;5.32;;;;;;;-8.59;95.48;102897.09;4860886;29;20215;-64
2024/01/10 02:56:11;;;;;;;32.85;6.22;;;;;;;-8.61;95.66;102896.25;4866124;29;20223;-64
2024/01/10 02:58:47;;;;;;;6.38;5.97;;;;;;;-8.59;96.39;102891.84;4866504;29;20215;-65
2024/01/10 03:01:22;;;;;;;9.18;6.57;;;;;;;-8.73;96.21;102888.66;4867445;29;20630;-65
2024/01/10 03:03:56;;;;;;;13.07;5.78;;;;;;;-8.66;97.08;102882.34;4887523;29;20187;-65
2024/01/10 03:06:31;;;;;;;3.92;3.50;;;;;;;-8.66;96.92;102879.72;4873043;29;20219;-64
2024/01/10 03:09:04;;;;;;;13.20;9.02;;;;;;;-8.79;97.21;102880.88;4881091;29;20682;-64
2024/01/10 03:11:38;;;;;;;4.50;4.20;;;;;;;-8.73;97.59;102883.38;4855649;29;20244;-65
2024/01/10 03:14:20;;;;;;;6.10;5.70;;;;;;;-8.66;96.90;102874.47;4849855;29;20599;-64
2024/01/10 03:17:04;;;;;;;7.47;3.58;;;;;;;-8.51;96.66;102876.78;4872258;29;20222;-65
2024/01/10 03:19:42;;;;;;;9.93;9.27;;;;;;;-8.55;95.93;102883.00;4856483;29;20203;-65
2024/01/10 03:22:15;;;;;;;3.58;3.30;;;;;;;-8.32;95.46;102879.00;4868060;29;20281;-65
2024/01/10 03:24:50;;;;;;;4.78;4.38;;;;;;;-8.48;95.36;102876.75;4867340;29;20190;-63
2024/01/10 03:27:24;;;;;;;2.45;2.33;;;;;;;-8.44;94.78;102878.41;4877602;29;20221;-66
2024/01/10 03:29:59;;;;;;;5.25;4.78;;;;;;;-8.43;94.92;102882.75;4869984;29;20226;-64
2024/01/10 03:32:36;;;;;;;5.82;5.18;;;;;;;-8.41;93.87;102880.94;4887355;29;20187;-66
2024/01/10 03:35:10;;;;;;;3.97;1.85;;;;;;;-8.36;93.71;102883.47;4865098;29;20232;-65
2024/01/10 03:37:42;;;;;;;6.05;5.57;;;;;;;-8.46;93.37;102877.56;4863733;29;20278;-67
2024/01/10 03:40:23;;;;;;;4.15;3.90;;;;;;;-8.43;94.15;102876.66;4866491;29;20306;-65
2024/01/10 03:42:58;;;;;;;8.20;3.80;;;;;;;-8.45;94.05;102874.03;4854561;29;20286;-65
2024/01/10 03:45:34;;;;;;;12.80;6.32;;;;;;;-8.50;93.84;102873.28;4862873;29;20226;-65
2024/01/10 03:48:12;;;;;;;8.15;7.65;;;;;;;-8.51;94.22;102870.66;4869303;29;20641;-64
2024/01/10 03:53:48;;;;;;;5.75;5.43;;;;;;;-8.65;95.49;102873.59;4868075;29;20218;-63
2024/01/10 03:56:23;;;;;;;1.98;1.80;;;;;;;-8.65;95.49;102865.72;4866956;29;20274;-66
2024/01/10 03:58:55;;;;;;;10.07;3.70;;;;;;;-8.56;95.76;102865.53;4873568;29;20278;-65
2024/01/10 04:01:31;;;;;;;5.03;4.50;;;;;;;-8.49;95.37;102866.25;4871568;29;20198;-65
2024/01/10 04:04:09;;;;;;;4.82;4.35;;;;;;;-8.48;95.09;102858.38;4879045;29;20187;-64
2024/01/10 04:06:43;;;;;;;7.53;3.67;;;;;;;-8.47;94.69;102865.31;4874609;29;20226;-64
2024/01/10 04:09:30;;;;;;;5.30;3.95;;;;;;;-8.45;94.82;102858.28;4864460;29;20194;-64
2024/01/10 04:12:08;;;;;;;11.60;2.13;;;;;;;-8.43;93.83;102853.88;4864917;29;20214;-63
2024/01/10 04:14:42;;;;;;;2.70;2.53;;;;;;;-8.53;94.06;102848.84;4864094;29;20206;-64
2024/01/10 04:17:16;;;;;;;6.60;6.10;;;;;;;-8.44;94.40;102844.25;4864697;29;20222;-63
2024/01/10 04:19:53;;;;;;;5.03;4.70;;;;;;;-8.46;94.75;102839.94;4867879;29;20214;-62
2024/01/10 04:22:28;;;;;;;3.55;3.35;;;;;;;-8.43;94.61;102845.13;4864032;29;20255;-64
2024/01/10 04:25:07;;;;;;;7.93;7.40;;;;;;;-8.45;94.96;102846.91;4875932;29;20198;-64
2024/01/10 04:27:44;;;;;;;6.28;5.75;;;;;;;-8.58;95.08;102842.84;4883125;29;20191;-64
2024/01/10 04:30:18;;;;;;;13.07;4.93;;;;;;;-8.59;95.47;102847.22;4864812;29;20209;-64
2024/01/10 04:32:56;;;;;;;10.48;6.47;;;;;;;-8.56;95.41;102839.28;4867583;29;20696;-64
2024/01/10 04:35:31;;;;;;;4.13;3.92;;;;;;;-8.70;95.53;102843.94;4862514;29;20317;-63
2024/01/10 04:38:03;;;;;;;6.25;5.72;;;;;;;-8.58;96.11;102843.72;4868250;29;20229;-64
2024/01/10 04:40:36;;;;;;;5.95;5.40;;;;;;;-8.38;95.54;102844.13;4863760;29;20230;-63
2024/01/10 04:43:08;;;;;;;4.20;3.90;;;;;;;-8.32;94.57;102843.09;4874341;29;20674;-64
2024/01/10 04:45:40;;;;;;;7.38;6.70;;;;;;;-8.30;93.70;102848.34;4862483;29;20211;-64
2024/01/10 04:48:18;;;;;;;7.28;6.78;;;;;;;-8.38;93.42;102841.50;4874590;29;20203;-62
2024/01/10 04:50:52;;;;;;;7.75;7.25;;;;;;;-8.41;93.65;102849.44;4875737;29;20284;-63
2024/01/10 04:53:25;;;;;;;3.20;2.90;;;;;;;-8.41;93.75;102857.31;4880163;29;20663;-63
2024/01/10 04:55:57;;;;;;;4.35;3.00;;;;;;;-8.37;93.98;102851.09;4860612;29;20230;-64
2024/01/10 04:58:32;;;;;;;12.98;7.75;;;;;;;-8.45;94.55;102857.41;4862893;29;20285;-65
2024/01/10 05:01:06;;;;;;;7.47;6.97;;;;;;;-8.53;94.69;102860.22;4862312;29;20209;-63
2024/01/10 05:03:40;;;;;;;10.00;9.07;;;;;;;-8.51;94.39;102852.28;4882268;29;20195;-64
2024/01/10 05:06:15;;;;;;;5.13;4.70;;;;;;;-8.50;94.30;102848.78;4862683;29;20257;-63
2024/01/10 05:08:52;;;;;;;3.60;3.40;;;;;;;-8.50;95.02;102854.03;4868304;29;20292;-64
2024/01/10 05:11:26;;;;;;;2.08;1.85;;;;;;;-8.53;95.11;102848.84;4865461;29;20209;-63
2024/01/10 05:14:02;;;;;;;21.77;7.95;;;;;;;-8.55;94.67;102840.13;4863058;29;20199;-64
2024/01/10 05:16:36;;;;;;;13.82;8.13;;;;;;;-8.57;94.80;102840.19;4854797;29;20229;-65
2024/01/10 05:19:11;;;;;;;5.57;5.05;;;;;;;-8.51;94.30;102847.03;4865655;29;20198;-64
2024/01/10 05:21:46;;;;;;;6.55;5.88;;;;;;;-8.55;94.82;102846.25;4847460;29;20583;-65
2024/01/10 05:24:22;;;;;;;4.53;4.32;;;;;;;-8.52;95.05;102851.44;4859176;29;20202;-65
2024/01/10 05:26:57;;;;;;;2.95;2.75;;;;;;;-8.48;94.66;102852.25;4879941;29;20270;-63
2024/01/10 05:29:35;;;;;;;2.53;2.33;;;;;;;-8.54;95.23;102855.88;4866748;29;20202;-63
2024/01/10 05:32:08;;;;;;;9.73;7.80;;;;;;;-8.33;94.51;102861.56;4869843;29;20233;-64
2024/01/10 05:34:45;;;;;;;9.07;8.13;;;;;;;-8.24;94.20;102856.94;4865156;29;20217;-65
2024/01/10 05:37:19;;;;;;;3.67;3.42;;;;;;;-8.39;94.53;102845.03;4879319;29;20218;-63
2024/01/10 05:39:54;;;;;;;5.70;4.85;;;;;;;-8.24;93.58;102846.41;4857355;29;20678;-63
2024/01/10 05:42:29;;;;;;;4.22;3.63;;;;;;;-8.24;93.18;102840.28;4866335;29;20254;-64
2024/01/10 05:45:04;;;;;;;5.03;4.03;;;;;;;-8.26;92.48;102850.81;4878968;29;20191;-64
2024/01/10 05:47:45;;;;;;;2.58;2.42;;;;;;;-8.41;92.62;102841.56;4854833;29;20234;-64
2024/01/10 05:50:22;;;;;;;2.67;2.47;;;;;;;-8.30;92.86;102837.84;4865757;29;20206;-63
2024/01/10 05:52:55;;;;;;;6.70;6.20;;;;;;;-8.35;93.50;102840.56;4870057;29;20221;-64
2024/01/10 05:55:28;;;;;;;9.52;8.75;;;;;;;-8.35;93.82;102843.19;4857370;29;20226;-65
2024/01/10 05:58:09;;;;;;;3.33;3.13;;;;;;;-8.27;93.52;102848.22;4848348;29;20715;-62
2024/01/10 06:00:44;;;;;;;20.48;7.20;;;;;;;-8.22;93.29;102841.09;4861927;29;20206;-64
2024/01/10 06:03:16;;;;;;;4.75;4.35;;;;;;;-8.26;92.88;102839.44;4860646;29;20212;-65
2024/01/10 06:05:52;;;;;;;15.15;7.53;;;;;;;-8.33;93.73;102835.28;4861271;29;20218;-64
2024/01/10 06:08:28;;;;;;;15.95;6.70;;;;;;;-8.31;94.25;102834.34;4866738;29;20293;-62
2024/01/10 06:11:00;;;;;;;9.10;5.28;;;;;;;-8.27;94.68;102840.34;4863189;29;20231;-62
2024/01/10 06:13:36;;;;;;;5.35;4.63;;;;;;;-8.26;94.43;102836.81;4863116;29;20205;-63
2024/01/10 06:16:24;;;;;;;7.57;7.00;;;;;;;-8.19;93.98;102838.44;4885868;29;20263;-64
2024/01/10 06:18:57;;;;;;;6.72;6.03;;;;;;;-7.99;93.30;102836.19;4879675;29;20190;-63
2024/01/10 06:21:34;;;;;;;3.70;3.53;;;;;;;-8.11;92.41;102823.34;4867538;29;20194;-63
2024/01/10 06:24:08;;;;;;;10.40;6.47;;;;;;;-8.09;93.09;102821.56;4864186;29;20697;-64
2024/01/10 06:26:42;;;;;;;6.60;6.20;;;;;;;-7.94;93.81;102813.31;4855831;29;20222;-60
2024/01/10 06:29:23;;;;;;;6.85;6.45;;;;;;;-8.01;93.37;102814.34;4873650;29;20285;-64
2024/01/10 06:32:17;;;;;;;9.98;2.90;;;;;;;-8.04;94.21;102812.66;4871120;29;20198;-65
2024/01/10 06:35:01;;;;;;;6.45;5.93;;;;;;;-8.10;92.79;102822.44;4869971;29;20222;-64
2024/01/10 06:37:57;;;;;;;8.75;4.18;;;;;;;-8.20;92.36;102818.31;4899397;29;20214;-63
2024/01/10 06:44:13;;;;;;;8.18;2.75;;;;;;;-8.09;91.78;102822.44;4864454;29;20237;-65
2024/01/10 06:46:57;;;;;;;8.45;6.60;;;;;;;-8.06;91.44;102830.22;4867385;29;20246;-65
2024/01/10 06:49:38;;;;;;;8.07;7.25;;;;;;;-8.02;91.75;102831.00;4867179;29;20222;-64
2024/01/10 06:52:18;;;;;;;9.82;9.23;;;;;;;-8.07;91.02;102835.50;4869577;29;20203;-65
2024/01/10 06:54:58;;;;;;;2.10;2.00;;;;;;;-8.14;91.80;102831.31;4868958;29;20258;-64
2024/01/10 07:00:33;;;;;;;5.15;4.68;;;;;;;-8.31;92.12;102820.34;4873975;29;20677;-65
2024/01/10 07:03:17;;;;;;;7.43;6.75;;;;;;;-8.32;93.44;102826.50;4884909;29;20209;-64
2024/01/10 07:09:06;;;;;;;7.20;6.78;;;;;;;-8.18;94.04;102824.41;4866845;29;20685;-65
2024/01/10 07:12:02;;;;;;;6.00;5.55;;;;;;;-8.16;94.44;102817.34;4866578;29;20195;-65
2024/01/10 07:14:43;;;;;;;3.70;3.40;;;;;;;-8.13;94.66;102819.91;4865588;29;20617;-64
2024/01/10 07:17:30;;;;;;;27.58;8.93;;;;;;;-8.04;93.42;102817.06;4864571;29;20210;-65
2024/01/10 07:20:19;;;;;;;9.68;8.68;;;;;;;-8.09;93.71;102818.94;4868862;29;20550;-64
2024/01/10 07:23:25;;;;;;;4.15;3.85;;;;;;;-7.99;92.85;102815.19;4849122;29;20621;-64
2024/01/10 07:29:21;;;;;;;2.65;2.47;;;;;;;-8.06;93.29;102813.59;4855211;29;20203;-66
2024/01/10 07:32:05;;;;;;;11.45;9.68;;;;;;;-7.80;93.00;102816.47;4874389;29;20742;-65
2024/01/10 07:37:44;;;;;;;20.30;4.60;;;;;;;-7.69;91.97;102819.66;4879982;29;20218;-66
2024/01/10 07:40:25;;;;;;;11.48;6.07;;;;;;;-7.64;92.02;102823.03;4858460;29;20294;-65
2024/01/10 07:43:01;;;;;;;10.07;7.10;;;;;;;-7.50;90.30;102823.53;4864792;29;20205;-65
2024/01/10 07:45:38;;;;;;;5.38;4.88;;;;;;;-7.35;89.99;102829.28;4859781;29;20220;-65
2024/01/10 07:48:12;;;;;;;6.97;6.40;;;;;;;-7.24;87.67;102829.88;4859779;29;20289;-66
2024/01/10 07:50:45;;;;;;;6.15;2.53;;;;;;;-7.13;87.16;102835.72;4860163;29;20194;-65
2024/01/10 07:53:21;;;;;;;7.32;6.55;;;;;;;-7.30;86.57;102835.28;4858682;29;20210;-65
2024/01/10 07:55:53;;;;;;;4.05;3.30;;;;;;;-7.32;86.36;102837.13;4862987;29;20645;-66
2024/01/10 07:58:27;;;;;;;8.40;7.70;;;;;;;-7.29;86.68;102837.03;4876406;29;20264;-65
2024/01/10 08:01:07;;;;;;;8.23;4.72;;;;;;;-7.31;87.33;102834.44;4844940;29;20202;-64
2024/01/10 08:03:40;;;;;;;5.45;5.05;;;;;;;-7.26;87.33;102834.34;4863420;29;20218;-65
2024/01/10 08:06:15;;;;;;;8.27;6.65;;;;;;;-7.29;87.19;102826.50;4878957;29;20241;-64
2024/01/10 08:09:04;;;;;;;16.95;8.20;;;;;;;-7.32;87.83;102829.22;4878619;29;20463;-65
2024/01/10 08:11:40;;;;;;;14.13;6.65;;;;;;;-7.31;88.23;102826.53;4875307;29;20293;-65
2024/01/10 08:14:16;;;;;;;6.88;5.63;;;;;;;-7.28;87.87;102829.09;4865081;29;20217;-66
2024/01/10 08:16:53;;;;;;;21.00;13.68;;;;;;;-7.34;89.31;102823.13;4885508;29;20258;-64
2024/01/10 08:19:33;;;;;;;18.55;11.25;;;;;;;-7.23;88.42;102828.97;4879047;29;20289;-65
2024/01/10 08:22:09;;;;;;;8.15;7.50;;;;;;;-7.25;88.70;102830.78;4879644;29;20201;-65
2024/01/10 08:24:46;;;;;;;7.85;7.35;;;;;;;-7.17;88.75;102831.47;4879954;29;20201;-64
2024/01/10 08:27:22;;;;;;;22.02;12.80;;;;;;;-7.13;88.66;102835.72;4881651;29;20218;-64
2024/01/10 08:29:56;;;;;;;6.65;6.03;;;;;;;-7.12;87.97;102838.31;4892755;29;20746;-64
2024/01/10 08:32:35;;;;;;;4.95;4.43;;;;;;;-7.07;87.89;102840.81;4881189;29;20209;-65
2024/01/10 08:35:11;;;;;;;16.65;8.27;;;;;;;-7.03;88.07;102837.19;4877929;29;20824;-66
2024/01/10 08:37:48;;;;;;;13.32;12.10;;;;;;;-6.97;87.35;102842.25;4873742;29;20248;-65
2024/01/10 08:40:25;;;;;;;13.82;10.55;;;;;;;-6.76;86.86;102841.66;4893859;29;20288;-64
2024/01/10 08:43:01;;;;;;;4.90;4.60;;;;;;;-6.75;86.54;102843.41;4880443;29;20204;-65
2024/01/10 08:45:34;;;;;;;5.90;5.65;;;;;;;-6.70;85.92;102846.78;4876459;29;20226;-65
2024/01/10 08:48:14;;;;;;;11.23;4.25;;;;;;;-6.61;85.10;102845.63;4883306;29;20197;-65
2024/01/10 08:50:52;;;;;;;5.25;4.88;;;;;;;-6.46;83.79;102854.84;4880684;29;20229;-65
2024/01/10 08:53:26;;;;;;;11.77;10.30;;;;;;;-6.52;82.24;102841.84;4880746;29;20699;-66
2024/01/10 08:56:02;;;;;;;8.35;7.72;;;;;;;-6.38;82.45;102851.06;4879485;29;20230;-65
2024/01/10 08:58:40;;;;;;;12.15;8.88;;;;;;;-6.34;80.84;102852.69;4893969;29;20562;-65
2024/01/10 09:01:19;;;;;;;4.38;4.05;;;;;;;-6.34;80.77;102849.22;4876390;29;20266;-65
2024/01/10 09:04:05;;;;;;;14.68;9.07;;;;;;;-6.27;80.92;102840.22;4868606;29;20222;-65
2024/01/10 09:06:48;;;;;;;18.35;8.60;;;;;;;-6.14;80.38;102846.81;4879460;29;20218;-65
2024/01/10 09:09:42;;;;;;;6.05;5.55;;;;;;;-6.06;79.43;102846.59;4881151;29;20296;-66
2024/01/10 09:12:28;;;;;;;7.55;6.82;;;;;;;-6.10;78.37;102851.09;4875038;29;20202;-64
2024/01/10 09:15:08;;;;;;;14.82;13.52;;;;;;;-6.07;78.15;102848.38;4882114;29;20221;-65
2024/01/10 09:17:48;;;;;;;7.75;6.18;;;;;;;-6.08;77.62;102844.00;4889810;29;20210;-65
2024/01/10 09:20:34;;;;;;;10.80;9.75;;;;;;;-6.01;77.83;102842.03;4893375;29;20203;-64
2024/01/10 09:23:14;;;;;;;7.45;6.80;;;;;;;-5.98;77.65;102840.16;4877548;29;20275;-63
2024/01/10 09:26:02;;;;;;;5.30;4.10;;;;;;;-5.89;77.51;102841.63;4880566;29;20229;-65
2024/01/10 09:28:55;;;;;;;3.95;3.63;;;;;;;-5.84;77.61;102837.91;4879627;29;20210;-65
2024/01/10 09:31:31;;;;;;;6.13;5.60;;;;;;;-5.85;76.92;102844.09;4873686;29;20203;-65
2024/01/10 09:34:16;;;;;;;11.20;10.07;;;;;;;-5.78;77.63;102848.25;4878915;29;20202;-65
2024/01/10 09:36:59;;;;;;;8.88;5.15;;;;;;;-5.52;77.26;102846.53;4855082;29;20589;-64
2024/01/10 09:39:41;;;;;;;6.75;6.13;;;;;;;-5.43;76.50;102836.53;4887271;29;20209;-66
2024/01/10 09:42:18;;;;;;;13.73;11.02;;;;;;;-5.36;76.51;102837.16;4877022;29;20202;-65
2024/01/10 09:45:00;;;;;;;8.05;7.28;;;;;;;-5.20;75.65;102843.66;4878431;29;20206;-65
2024/01/10 09:48:02;;;;;;;16.65;13.18;;;;;;;-5.16;75.20;102841.75;4872330;29;20295;-64
2024/01/10 09:50:49;;;;;;;7.60;6.93;;;;;;;-5.17;74.49;102834.75;4874326;29;20205;-65
2024/01/10 09:53:49;;;;;;;4.60;4.35;;;;;;;-5.12;74.75;102836.31;4896608;29;20214;-65
2024/01/10 09:56:29;;;;;;;17.98;12.30;;;;;;;-5.07;73.92;102838.78;4881365;29;20729;-67
2024/01/10 09:59:12;;;;;;;6.85;2.80;;;;;;;-5.02;73.86;102835.06;4883636;29;20194;-65
2024/01/10 10:01:46;;;;;;;12.90;10.68;;;;;;;-5.03;74.21;102841.25;4873235;29;20199;-65
2024/01/10 10:04:35;;;;;;;12.10;11.30;;;;;;;-4.99;72.85;102837.63;4867409;29;20222;-64
2024/01/10 10:07:11;;;;;;;22.48;8.45;;;;;;;-4.92;73.06;102843.50;4879105;29;20218;-66
2024/01/10 10:09:56;;;;;;;11.32;7.97;;;;;;;-4.77;72.41;102842.09;4877906;29;20249;-65
2024/01/10 10:12:51;;;;;;;5.72;5.22;;;;;;;-4.63;73.12;102834.50;4877263;29;20769;-65
2024/01/10 10:15:30;;;;;;;16.80;10.50;;;;;;;-4.36;72.32;102829.97;4878593;29;20222;-64
2024/01/10 10:18:13;;;;;;;12.90;11.65;;;;;;;-4.30;70.92;102835.00;4871973;29;20222;-64
2024/01/10 10:21:09;;;;;;;9.88;8.95;;;;;;;-4.33;71.19;102827.19;4872278;29;20206;-65
2024/01/10 10:24:01;;;;;;;6.10;5.60;;;;;;;-4.30;70.21;102822.66;4894750;29;20278;-66
2024/01/10 10:26:38;;;;;;;6.82;6.22;;;;;;;-4.17;70.75;102821.25;4874613;29;20220;-66
2024/01/10 10:29:13;;;;;;;8.52;6.60;;;;;;;-4.09;69.51;102807.72;4876041;29;20264;-65
2024/01/10 10:31:53;;;;;;;6.45;6.10;;;;;;;-3.79;69.02;102806.47;4899767;29;20200;-65
2024/01/10 10:34:33;;;;;;;11.50;10.50;;;;;;;-3.53;67.95;102805.34;4879756;29;20213;-66
2024/01/10 10:37:10;;;;;;;5.75;5.45;;;;;;;-3.62;66.67;102800.47;4877729;29;20219;-65
2024/01/10 10:39:43;;;;;;;13.50;9.68;;;;;;;-3.41;65.97;102804.84;4876550;29;20231;-64
2024/01/10 10:42:20;;;;;;;11.15;10.07;;;;;;;-3.23;65.63;102804.03;4878672;29;20202;-64
2024/01/10 10:44:59;;;;;;;7.72;7.13;;;;;;;-3.09;63.66;102791.06;4881153;29;20198;-64
2024/01/10 10:47:40;;;;;;;10.20;8.98;;;;;;;-2.98;63.55;102801.19;4880230;29;20190;-67
2024/01/10 10:50:24;;;;;;;7.63;6.88;;;;;;;-2.83;61.36;102802.28;4893049;29;20282;-65
2024/01/10 10:52:57;;;;;;;7.07;6.57;;;;;;;-2.76;61.14;102809.03;4875753;29;20209;-66
2024/01/10 10:55:47;;;;;;;15.95;8.23;;;;;;;-2.70;60.57;102799.00;4876078;29;20214;-67
2024/01/10 10:58:22;;;;;;;6.90;6.20;;;;;;;-2.58;61.02;102797.56;4875156;29;20206;-66
2024/01/10 11:00:57;;;;;;;4.03;3.72;;;;;;;-2.54;59.69;102803.56;4875788;29;20202;-65
2024/01/10 11:03:31;;;;;;;6.03;5.60;;;;;;;-2.49;58.10;102807.75;4885541;29;20293;-66
2024/01/10 11:06:34;;;;;;;17.23;11.48;;;;;;;-2.41;57.97;102810.88;4891884;29;20272;-66
2024/01/10 11:09:14;;;;;;;8.35;7.85;;;;;;;-2.26;58.27;102807.50;4881710;29;20270;-66
2024/01/10 11:12:07;;;;;;;8.95;6.00;;;;;;;-2.16;58.16;102809.72;4876984;29;20267;-65
2024/01/10 11:15:03;;;;;;;7.40;6.80;;;;;;;-2.17;58.08;102802.69;4875598;29;20199;-64
2024/01/10 11:17:58;;;;;;;8.07;6.90;;;;;;;-2.28;57.27;102798.78;4880399;29;20218;-65
2024/01/10 11:21:07;;;;;;;9.38;6.28;;;;;;;-2.01;56.93;102798.38;4879544;29;20198;-66
2024/01/10 11:23:48;;;;;;;6.43;5.93;;;;;;;-1.99;56.55;102792.06;4814452;29;20213;-66
2024/01/10 11:26:23;;;;;;;5.10;4.65;;;;;;;-1.83;54.94;102792.13;4873774;29;20226;-65
2024/01/10 11:28:56;;;;;;;5.40;5.00;;;;;;;-1.87;55.16;102798.53;4879385;29;20259;-66
2024/01/10 11:31:34;;;;;;;3.67;2.80;;;;;;;-1.89;54.15;102797.78;4895174;29;20250;-66
2024/01/10 11:34:05;;;;;;;9.10;8.30;;;;;;;-1.92;54.41;102793.47;4880349;29;20313;-65
2024/01/10 11:36:37;;;;;;;6.70;4.88;;;;;;;-1.82;54.29;102801.81;4882220;29;20273;-66
2024/01/10 11:39:12;;;;;;;3.13;2.92;;;;;;;-1.87;54.49;102795.88;4881963;29;20285;-64
2024/01/10 11:41:44;;;;;;;5.88;4.35;;;;;;;-1.71;55.28;102791.53;4898025;29;20556;-66
2024/01/10 11:44:31;;;;;;;9.52;6.28;;;;;;;-1.76;54.74;102793.56;4879631;29;20764;-65
2024/01/10 11:47:07;;;;;;;5.50;4.95;;;;;;;-1.65;55.15;102785.94;4876256;29;20640;-66
2024/01/10 11:49:38;;;;;;;10.18;7.50;;;;;;;-1.59;54.41;102785.59;4876909;29;20241;-66
2024/01/10 11:52:17;;;;;;;7.63;7.03;;;;;;;-1.60;55.32;102783.91;4876248;29;20552;-65
2024/01/10 11:54:50;;;;;;;6.65;5.30;;;;;;;-1.67;53.67;102781.63;4865896;29;20198;-64
2024/01/10 11:57:26;;;;;;;6.55;3.67;;;;;;;-1.81;54.05;102780.53;4882045;29;20677;-66
2024/01/10 12:00:06;;;;;;;20.27;5.55;;;;;;;-1.80;54.10;102779.59;4891494;29;20218;-65
2024/01/10 12:05:29;;;;;;;7.32;6.85;;;;;;;-1.58;53.80;102767.88;4879052;29;20305;-65
2024/01/10 12:08:00;;;;;;;5.60;5.20;;;;;;;-1.48;52.62;102769.97;4878731;29;20197;-65
2024/01/10 12:10:35;;;;;;;6.55;5.85;;;;;;;-1.45;52.96;102763.66;4870842;29;20203;-67
2024/01/10 12:13:10;;;;;;;2.40;2.30;;;;;;;-1.50;52.36;102763.88;4880079;29;20709;-65
2024/01/10 12:15:41;;;;;;;7.03;6.47;;;;;;;-1.51;53.15;102758.66;4878912;29;20713;-67
2024/01/10 12:18:20;;;;;;;3.75;3.55;;;;;;;-1.57;52.51;102762.50;4887866;29;20226;-65
2024/01/10 12:20:53;;;;;;;10.57;4.95;;;;;;;-1.63;52.19;102751.31;4879650;29;20214;-65
2024/01/10 12:23:30;;;;;;;2.13;1.98;;;;;;;-1.53;52.28;102753.44;4878858;29;20258;-66
2024/01/10 12:26:07;;;;;;;10.43;6.63;;;;;;;-1.39;51.92;102750.06;4877284;29;20217;-66
2024/01/10 12:28:42;;;;;;;1.98;1.88;;;;;;;-1.44;53.08;102739.66;4881615;29;20277;-66
2024/01/10 12:31:19;;;;;;;8.00;5.00;;;;;;;-1.27;52.63;102737.94;4879559;29;20203;-65